createdAt,value
2023-05-05T00:01:47.978Z,14.43
2023-05-05T00:04:22.462Z,14.57
2023-05-05T00:06:52.631Z,14.59
2023-05-05T00:09:20.632Z,14.55
2023-05-05T00:11:50.303Z,14.55
2023-05-05T00:14:21.626Z,14.42
2023-05-05T00:16:50.178Z,14.40
2023-05-05T00:19:21.208Z,14.23
2023-05-05T00:21:49.337Z,14.35
2023-05-05T00:24:17.288Z,14.28
2023-05-05T00:26:46.747Z,14.13
2023-05-05T00:29:16.831Z,14.06
2023-05-05T00:31:46.706Z,13.94
2023-05-05T00:34:15.207Z,13.94
2023-05-05T00:36:44.288Z,13.83
2023-05-05T00:39:15.404Z,13.90
2023-05-05T00:41:44.864Z,13.92
2023-05-05T00:44:12.644Z,13.90
2023-05-05T00:46:45.853Z,13.87
2023-05-05T00:49:14.309Z,13.74
2023-05-05T00:51:42.768Z,13.92
2023-05-05T00:54:10.767Z,13.96
2023-05-05T00:56:38.857Z,13.93
2023-05-05T00:59:10.592Z,14.00
2023-05-05T01:01:40.581Z,14.13
2023-05-05T01:04:10.291Z,14.21
2023-05-05T01:06:47.466Z,14.21
2023-05-05T01:09:25.954Z,14.18
2023-05-05T01:12:04.254Z,14.18
2023-05-05T01:14:41.061Z,14.16
2023-05-05T01:17:17.130Z,14.21
2023-05-05T01:19:57.840Z,14.25
2023-05-05T01:22:36.314Z,14.23
2023-05-05T01:25:55.904Z,14.10
2023-05-05T01:28:45.209Z,14.08
2023-05-05T01:31:26.174Z,13.94
2023-05-05T01:34:05.130Z,13.87
2023-05-05T01:36:38.709Z,13.73
2023-05-05T01:39:10.853Z,13.70
2023-05-05T01:41:46.824Z,13.66
2023-05-05T01:44:16.484Z,13.45
2023-05-05T01:46:46.002Z,13.43
2023-05-05T01:49:22.181Z,13.42
2023-05-05T01:51:52.261Z,13.50
2023-05-05T01:54:21.421Z,13.32
2023-05-05T01:56:50.691Z,13.38
2023-05-05T01:59:28.578Z,13.36
2023-05-05T02:02:00.411Z,13.42
2023-05-05T02:04:34.047Z,13.30
2023-05-05T02:07:04.626Z,13.16
2023-05-05T02:09:34.208Z,13.25
2023-05-05T02:12:05.300Z,13.15
2023-05-05T02:14:36.986Z,13.10
2023-05-05T02:17:05.584Z,13.29
2023-05-05T02:19:43.217Z,13.28
2023-05-05T02:22:12.199Z,13.15
2023-05-05T02:24:40.459Z,13.35
2023-05-05T02:27:09.472Z,13.15
2023-05-05T02:29:42.909Z,13.14
2023-05-05T02:32:17.579Z,13.09
2023-05-05T02:34:52.463Z,13.10
2023-05-05T02:37:24.496Z,13.00
2023-05-05T02:39:59.606Z,12.95
2023-05-05T02:42:38.033Z,13.00
2023-05-05T02:45:13.976Z,12.79
2023-05-05T02:47:42.019Z,12.77
2023-05-05T02:50:13.012Z,12.81
2023-05-05T02:52:41.247Z,12.74
2023-05-05T02:55:10.582Z,12.68
2023-05-05T02:57:44.620Z,12.67
2023-05-05T03:00:21.672Z,12.68
2023-05-05T03:03:02.002Z,12.66
2023-05-05T03:05:38.552Z,12.70
2023-05-05T03:08:15.680Z,12.69
2023-05-05T03:10:50.110Z,12.66
2023-05-05T03:13:21.600Z,12.81
2023-05-05T03:15:52.827Z,12.54
2023-05-05T03:18:22.416Z,12.66
2023-05-05T03:20:52.646Z,12.88
2023-05-05T03:23:23.040Z,13.02
2023-05-05T03:25:53.120Z,12.98
2023-05-05T03:28:21.494Z,13.11
2023-05-05T03:30:49.279Z,13.33
2023-05-05T03:33:18.004Z,13.26
2023-05-05T03:35:49.031Z,13.25
2023-05-05T03:38:18.663Z,13.28
2023-05-05T03:40:46.458Z,13.47
2023-05-05T03:43:14.293Z,13.24
2023-05-05T03:45:42.260Z,13.24
2023-05-05T03:48:11.490Z,13.19
2023-05-05T03:50:39.444Z,13.04
2023-05-05T03:53:07.477Z,12.85
2023-05-05T03:55:37.031Z,13.06
2023-05-05T03:58:06.713Z,13.30
2023-05-05T04:00:35.149Z,13.01
2023-05-05T04:03:03.765Z,13.03
2023-05-05T04:05:31.999Z,12.98
2023-05-05T04:08:03.363Z,13.13
2023-05-05T04:10:31.490Z,13.19
2023-05-05T04:13:00.846Z,12.99
2023-05-05T04:15:31.365Z,12.90
2023-05-05T04:18:00.401Z,12.95
2023-05-05T04:20:28.554Z,13.07
2023-05-05T04:22:59.028Z,12.88
2023-05-05T04:25:28.177Z,12.86
2023-05-05T04:27:56.048Z,12.77
2023-05-05T04:30:29.044Z,12.99
2023-05-05T04:32:56.877Z,12.92
2023-05-05T04:35:25.038Z,12.98
2023-05-05T04:37:54.731Z,12.92
2023-05-05T04:40:26.373Z,12.87
2023-05-05T04:42:54.987Z,12.81
2023-05-05T04:45:23.900Z,13.02
2023-05-05T04:47:53.187Z,13.40
2023-05-05T04:50:21.267Z,13.54
2023-05-05T04:52:50.247Z,13.42
2023-05-05T04:55:19.238Z,13.46
2023-05-05T04:57:48.357Z,13.69
2023-05-05T05:00:17.049Z,13.61
2023-05-05T05:02:45.740Z,13.65
2023-05-05T05:05:21.784Z,13.66
2023-05-05T05:07:53.135Z,13.78
2023-05-05T05:10:22.384Z,13.83
2023-05-05T05:12:50.483Z,13.75
2023-05-05T05:15:19.851Z,13.93
2023-05-05T05:17:47.945Z,13.84
2023-05-05T05:20:21.150Z,13.94
2023-05-05T05:22:49.244Z,13.95
2023-05-05T05:25:19.315Z,13.91
2023-05-05T05:27:52.323Z,14.63
2023-05-05T05:30:30.357Z,14.50
2023-05-05T05:32:58.208Z,14.43
2023-05-05T05:35:27.539Z,14.71
2023-05-05T05:37:55.402Z,14.72
2023-05-05T05:40:24.951Z,15.20
2023-05-05T05:42:53.065Z,15.29
2023-05-05T05:45:21.746Z,15.22
2023-05-05T05:47:52.297Z,15.09
2023-05-05T05:50:20.160Z,15.06
2023-05-05T05:52:49.356Z,15.53
2023-05-05T05:55:18.992Z,15.50
2023-05-05T05:57:48.164Z,15.67
2023-05-05T06:00:17.208Z,15.77
2023-05-05T06:02:45.865Z,16.17
2023-05-05T06:05:14.122Z,16.37
2023-05-05T06:07:41.887Z,16.30
2023-05-05T06:10:26.432Z,16.06
2023-05-05T06:12:54.917Z,16.28
2023-05-05T06:15:22.872Z,16.67
2023-05-05T06:17:51.212Z,16.89
2023-05-05T06:20:20.608Z,16.85
2023-05-05T06:22:48.310Z,16.99
2023-05-05T06:25:19.209Z,16.83
2023-05-05T06:27:48.387Z,17.04
2023-05-05T06:30:16.499Z,16.76
2023-05-05T06:32:44.374Z,16.61
2023-05-05T06:35:12.369Z,16.91
2023-05-05T06:37:40.556Z,17.10
2023-05-05T06:40:11.467Z,17.65
2023-05-05T06:42:41.665Z,17.77
2023-05-05T06:45:10.482Z,17.82
2023-05-05T06:47:38.844Z,17.60
2023-05-05T06:50:09.417Z,17.75
2023-05-05T06:52:37.797Z,17.74
2023-05-05T06:55:06.354Z,17.68
2023-05-05T06:57:34.194Z,17.31
2023-05-05T07:00:05.900Z,17.84
2023-05-05T07:02:36.342Z,17.75
2023-05-05T07:05:04.324Z,18.19
2023-05-05T07:07:33.545Z,18.10
2023-05-05T07:10:02.268Z,18.09
2023-05-05T07:12:32.148Z,18.30
2023-05-05T07:15:04.789Z,18.48
2023-05-05T07:17:39.193Z,18.62
2023-05-05T07:20:13.919Z,18.97
2023-05-05T07:22:42.266Z,18.70
2023-05-05T07:25:11.043Z,18.62
2023-05-05T07:27:39.764Z,19.34
2023-05-05T07:30:13.099Z,19.55
2023-05-05T07:32:43.501Z,19.49
2023-05-05T07:35:12.226Z,19.69
2023-05-05T07:37:40.238Z,19.74
2023-05-05T07:40:10.273Z,20.02
2023-05-05T07:42:38.574Z,20.19
2023-05-05T07:45:11.391Z,20.38
2023-05-05T07:47:40.557Z,20.69
2023-05-05T07:50:11.743Z,20.41
2023-05-05T07:55:10.462Z,20.87
2023-05-05T07:57:38.578Z,21.36
2023-05-05T08:00:08.626Z,21.54
2023-05-05T08:02:36.913Z,21.04
2023-05-05T08:05:07.060Z,21.16
2023-05-05T08:07:43.404Z,21.20
2023-05-05T08:10:12.475Z,21.56
2023-05-05T08:12:43.335Z,21.44
2023-05-05T08:15:12.241Z,20.75
2023-05-05T08:17:48.319Z,21.27
2023-05-05T08:20:17.793Z,21.22
2023-05-05T08:22:48.744Z,21.38
2023-05-05T08:25:17.565Z,21.66
2023-05-05T08:27:46.203Z,21.65
2023-05-05T08:30:17.273Z,20.98
2023-05-05T08:32:46.879Z,21.16
2023-05-05T08:35:14.953Z,21.48
2023-05-05T08:37:43.300Z,21.83
2023-05-05T08:40:17.410Z,21.67
2023-05-05T08:42:46.451Z,21.98
2023-05-05T08:45:16.198Z,22.48
2023-05-05T08:47:48.250Z,22.61
2023-05-05T08:50:20.105Z,22.82
2023-05-05T08:53:00.879Z,22.03
2023-05-05T08:55:36.462Z,22.45
2023-05-05T08:58:06.130Z,22.24
2023-05-05T09:00:34.861Z,22.79
2023-05-05T09:03:04.401Z,22.94
2023-05-05T09:05:32.835Z,23.02
2023-05-05T09:08:04.021Z,23.04
2023-05-05T09:10:34.232Z,22.65
2023-05-05T09:13:05.825Z,22.07
2023-05-05T09:15:34.825Z,22.68
2023-05-05T09:18:05.663Z,23.07
2023-05-05T09:20:36.326Z,22.60
2023-05-05T09:23:14.167Z,23.34
2023-05-05T09:25:47.304Z,22.71
2023-05-05T09:28:16.547Z,22.87
2023-05-05T09:30:46.956Z,23.15
2023-05-05T09:33:18.375Z,23.73
2023-05-05T09:35:52.669Z,23.84
2023-05-05T09:38:24.880Z,23.76
2023-05-05T09:40:55.134Z,23.54
2023-05-05T09:43:24.954Z,23.75
2023-05-05T09:45:53.501Z,23.83
2023-05-05T09:48:26.580Z,23.47
2023-05-05T09:50:57.863Z,23.31
2023-05-05T09:53:27.969Z,23.52
2023-05-05T09:56:01.346Z,23.73
2023-05-05T09:58:31.111Z,24.15
2023-05-05T10:01:01.453Z,24.21
2023-05-05T10:03:30.772Z,23.56
2023-05-05T10:06:01.378Z,23.81
2023-05-05T10:08:30.835Z,24.22
2023-05-05T10:11:04.981Z,24.20
2023-05-05T10:13:37.681Z,24.92
2023-05-05T10:16:09.279Z,24.12
2023-05-05T10:18:41.135Z,24.72
2023-05-05T10:21:12.023Z,25.27
2023-05-05T10:23:45.428Z,24.29
2023-05-05T10:26:16.080Z,24.78
2023-05-05T10:28:47.228Z,25.02
2023-05-05T10:31:25.702Z,24.77
2023-05-05T10:33:57.730Z,24.95
2023-05-05T10:36:26.517Z,25.36
2023-05-05T10:38:59.383Z,25.66
2023-05-05T10:41:30.861Z,25.86
2023-05-05T10:44:02.184Z,25.45
2023-05-05T10:46:33.750Z,24.72
2023-05-05T10:49:13.442Z,25.29
2023-05-05T10:51:54.739Z,25.09
2023-05-05T10:54:41.329Z,25.07
2023-05-05T10:57:11.912Z,25.24
2023-05-05T10:59:45.591Z,25.66
2023-05-05T11:02:21.971Z,25.58
2023-05-05T11:05:12.589Z,25.52
2023-05-05T11:07:45.004Z,26.18
2023-05-05T11:10:14.636Z,26.43
2023-05-05T11:13:21.929Z,26.14
2023-05-05T11:15:56.818Z,25.80
2023-05-05T11:18:35.768Z,26.28
2023-05-05T11:21:19.328Z,26.81
2023-05-05T11:23:50.251Z,26.98
2023-05-05T11:26:19.970Z,25.64
2023-05-05T11:29:06.043Z,25.66
2023-05-05T11:31:34.026Z,25.88
2023-05-05T11:34:28.087Z,25.31
2023-05-05T11:37:09.264Z,26.54
2023-05-05T11:39:44.454Z,26.23
2023-05-05T11:42:27.307Z,25.68
2023-05-05T11:44:57.371Z,25.94
2023-05-05T11:47:32.833Z,26.10
2023-05-05T11:50:21.527Z,26.28
2023-05-05T11:52:50.671Z,26.67
2023-05-05T11:55:28.246Z,26.60
2023-05-05T11:57:56.573Z,26.50
2023-05-05T12:00:39.288Z,26.84
2023-05-05T12:03:07.543Z,27.00
2023-05-05T12:05:43.183Z,26.14
2023-05-05T12:08:13.969Z,26.91
2023-05-05T12:10:42.056Z,26.76
2023-05-05T12:13:20.027Z,26.77
2023-05-05T12:15:51.676Z,27.05
2023-05-05T12:18:20.401Z,26.60
2023-05-05T12:20:48.590Z,27.63
2023-05-05T12:23:20.269Z,26.92
2023-05-05T12:25:48.326Z,27.55
2023-05-05T12:28:16.263Z,27.44
2023-05-05T12:30:45.212Z,27.23
2023-05-05T12:33:16.093Z,27.13
2023-05-05T12:35:45.650Z,27.47
2023-05-05T12:38:18.562Z,26.78
2023-05-05T12:40:49.702Z,26.39
2023-05-05T12:43:31.685Z,27.54
2023-05-05T12:46:05.461Z,26.37
2023-05-05T12:48:38.003Z,27.16
2023-05-05T12:51:23.089Z,27.54
2023-05-05T12:54:04.116Z,26.89
2023-05-05T12:56:49.150Z,27.75
2023-05-05T12:59:35.092Z,27.54
2023-05-05T13:02:05.099Z,26.93
2023-05-05T13:04:35.852Z,26.80
2023-05-05T13:07:13.179Z,27.10
2023-05-05T13:09:44.596Z,27.24
2023-05-05T13:12:13.321Z,27.00
2023-05-05T13:14:41.987Z,27.13
2023-05-05T13:17:10.819Z,27.08
2023-05-05T13:19:46.369Z,27.04
2023-05-05T13:22:15.613Z,27.22
2023-05-05T13:24:51.680Z,27.92
2023-05-05T13:27:23.880Z,27.96
2023-05-05T13:29:52.253Z,27.18
2023-05-05T13:32:20.548Z,26.72
2023-05-05T13:34:51.075Z,27.66
2023-05-05T13:37:20.063Z,27.94
2023-05-05T13:39:48.011Z,28.30
2023-05-05T13:42:19.927Z,27.76
2023-05-05T13:44:48.618Z,27.68
2023-05-05T13:47:20.826Z,28.41
2023-05-05T13:49:51.492Z,29.20
2023-05-05T13:52:19.536Z,29.59
2023-05-05T13:54:48.145Z,29.90
2023-05-05T13:57:17.100Z,30.42
2023-05-05T13:59:45.075Z,30.76
2023-05-05T14:02:13.252Z,31.61
2023-05-05T14:04:42.875Z,32.17
2023-05-05T14:07:14.687Z,32.18
2023-05-05T14:09:44.750Z,31.54
2023-05-05T14:12:13.464Z,32.07
2023-05-05T14:14:42.881Z,31.59
2023-05-05T14:17:11.571Z,28.85
2023-05-05T14:19:39.452Z,28.37
2023-05-05T14:22:11.247Z,28.56
2023-05-05T14:24:42.096Z,28.04
2023-05-05T14:27:11.412Z,29.46
2023-05-05T14:29:44.236Z,29.76
2023-05-05T14:32:12.195Z,29.54
2023-05-05T14:34:43.227Z,29.06
2023-05-05T14:37:11.783Z,28.79
2023-05-05T14:39:41.581Z,28.85
2023-05-05T14:42:10.109Z,29.71
2023-05-05T14:44:38.393Z,28.86
2023-05-05T14:47:07.252Z,28.50
2023-05-05T14:49:36.325Z,27.90
2023-05-05T14:52:04.841Z,27.81
2023-05-05T14:54:33.402Z,27.09
2023-05-05T14:57:05.667Z,27.07
2023-05-05T14:59:34.789Z,26.23
2023-05-05T15:02:05.915Z,26.35
2023-05-05T15:04:34.938Z,25.97
2023-05-05T15:07:04.009Z,25.92
2023-05-05T15:09:33.706Z,25.76
2023-05-05T15:12:02.991Z,25.92
2023-05-05T15:14:33.734Z,26.16
2023-05-05T15:17:02.910Z,25.89
2023-05-05T15:19:36.110Z,25.61
2023-05-05T15:22:05.249Z,25.68
2023-05-05T15:24:33.255Z,25.26
2023-05-05T15:27:04.376Z,25.17
2023-05-05T15:29:33.477Z,25.20
2023-05-05T15:32:04.921Z,24.99
2023-05-05T15:34:34.163Z,24.60
2023-05-05T15:37:07.139Z,22.76
2023-05-05T15:39:36.613Z,21.02
2023-05-05T15:42:06.797Z,20.18
2023-05-05T15:44:34.812Z,19.87
2023-05-05T15:47:03.784Z,19.85
2023-05-05T15:49:32.441Z,19.70
2023-05-05T15:52:02.143Z,19.87
2023-05-05T15:54:44.951Z,19.79
2023-05-05T15:57:20.287Z,19.91
2023-05-05T15:59:50.661Z,19.93
2023-05-05T16:02:21.015Z,19.94
2023-05-05T16:04:49.299Z,19.94
2023-05-05T16:07:20.586Z,19.96
2023-05-05T16:09:48.509Z,19.97
2023-05-05T16:12:32.541Z,20.04
2023-05-05T16:15:01.804Z,19.98
2023-05-05T16:17:30.156Z,19.97
2023-05-05T16:19:59.010Z,20.03
2023-05-05T16:22:28.225Z,20.17
2023-05-05T16:24:56.420Z,20.34
2023-05-05T16:27:26.597Z,20.38
2023-05-05T16:29:55.668Z,20.41
2023-05-05T16:32:26.210Z,20.55
2023-05-05T16:34:56.137Z,20.67
2023-05-05T16:37:26.962Z,20.75
2023-05-05T16:39:56.447Z,20.76
2023-05-05T16:42:25.920Z,20.87
2023-05-05T16:44:53.777Z,20.88
2023-05-05T16:47:23.106Z,20.94
2023-05-05T16:49:52.563Z,21.01
2023-05-05T16:52:22.119Z,21.06
2023-05-05T16:54:55.789Z,21.03
2023-05-05T16:57:29.202Z,21.20
2023-05-05T16:59:57.906Z,21.02
2023-05-05T17:02:26.973Z,20.94
2023-05-05T17:04:54.874Z,20.87
2023-05-05T17:07:22.989Z,20.93
2023-05-05T17:09:51.932Z,20.64
2023-05-05T17:12:20.104Z,20.59
2023-05-05T17:14:51.568Z,20.61
2023-05-05T17:17:22.157Z,20.64
2023-05-05T17:19:52.063Z,20.53
2023-05-05T17:22:20.403Z,20.49
2023-05-05T17:24:49.508Z,20.56
2023-05-05T17:27:17.887Z,20.68
2023-05-05T17:29:47.326Z,20.68
2023-05-05T17:32:17.325Z,20.87
2023-05-05T17:34:48.321Z,20.67
2023-05-05T17:37:16.483Z,20.42
2023-05-05T17:39:47.511Z,20.37
2023-05-05T17:42:16.906Z,20.44
2023-05-05T17:44:46.967Z,20.58
2023-05-05T17:47:22.255Z,20.61
2023-05-05T17:49:51.039Z,20.62
2023-05-05T17:52:19.223Z,20.64
2023-05-05T17:54:48.764Z,20.57
2023-05-05T17:57:18.768Z,20.55
2023-05-05T17:59:47.237Z,20.42
2023-05-05T18:02:15.628Z,20.37
2023-05-05T18:04:49.560Z,20.37
2023-05-05T18:07:19.190Z,20.27
2023-05-05T18:09:47.815Z,20.17
2023-05-05T18:12:17.279Z,20.22
2023-05-05T18:14:46.471Z,20.24
2023-05-05T18:17:15.080Z,20.30
2023-05-05T18:19:46.574Z,20.08
2023-05-05T18:22:20.172Z,20.04
2023-05-05T18:24:51.857Z,19.99
2023-05-05T18:27:20.039Z,19.94
2023-05-05T18:29:49.156Z,19.91
2023-05-05T18:32:19.164Z,19.86
2023-05-05T18:34:47.088Z,19.81
2023-05-05T18:37:17.933Z,20.25
2023-05-05T18:39:47.195Z,20.05
2023-05-05T18:42:16.663Z,19.96
2023-05-05T18:44:45.409Z,19.80
2023-05-05T18:47:13.752Z,19.96
2023-05-05T18:49:42.276Z,19.80
2023-05-05T18:52:10.967Z,20.04
2023-05-05T18:54:43.489Z,19.89
2023-05-05T18:57:11.812Z,19.86
2023-05-05T18:59:40.425Z,19.83
2023-05-05T19:02:08.668Z,19.80
2023-05-05T19:04:38.171Z,19.86
2023-05-05T19:07:08.589Z,19.71
2023-05-05T19:09:37.216Z,19.99
2023-05-05T19:12:07.154Z,19.82
2023-05-05T19:14:37.044Z,19.76
2023-05-05T19:17:05.101Z,19.73
2023-05-05T19:19:41.521Z,19.71
2023-05-05T19:22:10.337Z,19.63
2023-05-05T19:24:41.396Z,19.85
2023-05-05T19:27:15.457Z,19.60
2023-05-05T19:29:50.146Z,19.69
2023-05-05T19:32:22.226Z,19.54
2023-05-05T19:34:54.381Z,19.60
2023-05-05T19:37:22.869Z,19.63
2023-05-05T19:39:51.664Z,19.40
2023-05-05T19:42:21.815Z,19.41
2023-05-05T19:44:52.992Z,19.20
2023-05-05T19:47:21.525Z,19.21
2023-05-05T19:49:51.629Z,19.27
2023-05-05T19:52:22.458Z,19.23
2023-05-05T19:54:51.083Z,18.90
2023-05-05T19:57:19.871Z,18.75
2023-05-05T19:59:51.079Z,18.61
2023-05-05T20:02:20.344Z,18.83
2023-05-05T20:04:50.516Z,18.47
2023-05-05T20:07:21.601Z,18.14
2023-05-05T20:09:49.868Z,17.84
2023-05-05T20:12:19.832Z,17.71
2023-05-05T20:14:53.800Z,17.74
2023-05-05T20:17:21.860Z,17.65
2023-05-05T20:19:49.976Z,17.78
2023-05-05T20:22:19.954Z,17.82
2023-05-05T20:24:50.782Z,17.94
2023-05-05T20:27:19.951Z,17.99
2023-05-05T20:29:53.166Z,18.18
2023-05-05T20:32:23.370Z,17.87
2023-05-05T20:34:52.558Z,17.67
2023-05-05T20:37:24.903Z,17.54
2023-05-05T20:39:56.661Z,17.56
2023-05-05T20:42:27.665Z,17.48
2023-05-05T20:44:59.785Z,17.30
2023-05-05T20:47:29.738Z,17.51
2023-05-05T20:49:57.578Z,17.63
2023-05-05T20:52:25.924Z,17.86
2023-05-05T20:54:56.063Z,17.57
2023-05-05T20:57:25.937Z,17.53
2023-05-05T20:59:54.916Z,17.62
2023-05-05T21:02:26.694Z,17.78
2023-05-05T21:04:54.785Z,17.80
2023-05-05T21:07:25.554Z,17.77
2023-05-05T21:09:53.408Z,17.78
2023-05-05T21:12:26.555Z,17.67
2023-05-05T21:14:56.895Z,17.72
2023-05-05T21:17:29.140Z,17.87
2023-05-05T21:19:59.840Z,17.89
2023-05-05T21:22:27.788Z,17.88
2023-05-05T21:25:15.754Z,17.82
2023-05-05T21:27:43.919Z,17.76
2023-05-05T21:30:14.693Z,17.82
2023-05-05T21:32:46.166Z,17.91
2023-05-05T21:35:15.844Z,17.91
2023-05-05T21:37:47.235Z,17.83
2023-05-05T21:40:17.585Z,17.73
2023-05-05T21:42:47.391Z,17.72
2023-05-05T21:45:19.132Z,17.73
2023-05-05T21:47:52.113Z,17.75
2023-05-05T21:50:29.625Z,17.76
2023-05-05T21:52:57.495Z,17.86
2023-05-05T21:55:26.649Z,17.76
2023-05-05T21:57:55.939Z,17.74
2023-05-05T22:00:27.778Z,17.76
2023-05-05T22:02:58.375Z,17.84
2023-05-05T22:05:26.458Z,17.90
2023-05-05T22:07:55.136Z,17.89
2023-05-05T22:10:28.518Z,17.97
2023-05-05T22:12:56.893Z,17.74
2023-05-05T22:15:32.794Z,17.87
2023-05-05T22:18:09.741Z,17.84
2023-05-05T22:20:41.737Z,17.89
2023-05-05T22:23:09.933Z,17.80
2023-05-05T22:25:38.388Z,17.79
2023-05-05T22:28:07.583Z,17.77
2023-05-05T22:30:38.986Z,17.48
2023-05-05T22:33:09.121Z,17.52
2023-05-05T22:35:40.241Z,17.61
2023-05-05T22:38:08.410Z,17.67
2023-05-05T22:40:37.748Z,17.55
2023-05-05T22:43:05.784Z,17.65
2023-05-05T22:45:34.092Z,17.30
2023-05-05T22:48:02.743Z,17.32
2023-05-05T22:50:32.434Z,17.36
2023-05-05T22:53:00.269Z,17.23
2023-05-05T22:55:28.365Z,16.98
2023-05-05T22:57:56.617Z,16.96
2023-05-05T23:00:27.302Z,17.02
2023-05-05T23:02:56.715Z,16.92
2023-05-05T23:05:29.321Z,16.93
2023-05-05T23:08:01.503Z,17.01
2023-05-05T23:10:31.340Z,17.02
2023-05-05T23:12:59.571Z,17.10
2023-05-05T23:15:28.286Z,17.25
2023-05-05T23:17:57.548Z,17.28
2023-05-05T23:20:27.427Z,17.23
2023-05-05T23:23:06.280Z,17.31
2023-05-05T23:25:46.038Z,17.38
2023-05-05T23:28:15.971Z,17.32
2023-05-05T23:30:44.065Z,17.32
2023-05-05T23:33:12.223Z,17.40
2023-05-05T23:35:43.452Z,17.39
2023-05-05T23:38:13.155Z,17.43
2023-05-05T23:40:42.288Z,17.45
2023-05-05T23:43:11.891Z,17.37
2023-05-05T23:45:42.248Z,17.05
2023-05-05T23:48:12.852Z,16.84
2023-05-05T23:50:42.179Z,16.67
2023-05-05T23:53:14.669Z,16.58
2023-05-05T23:55:44.176Z,16.43
2023-05-05T23:58:14.534Z,16.37
